Time;durP1;ratioP1;P1;durP2;ratioP2;P2;SDS_P1;SDS_P2;PMS_P1;PMS_P2;Temp;Humidity;BMP_temperature;BMP_pressure;BME280_temperature;BME280_humidity;BME280_pressure;Samples;Min_cycle;Max_cycle;Signal;HPM_P1;HPM_P2
2023/07/27 00:02:06;;;;;;;0.00;0.00;;;17.30;99.90;;;;;;5032473;28;20049;-52
2023/07/27 00:04:31;;;;;;;0.00;0.00;;;17.20;99.90;;;;;;5040792;28;20033;-51
2023/07/27 00:06:57;;;;;;;0.00;0.00;;;17.20;99.90;;;;;;5048648;28;20041;-50
2023/07/27 00:09:23;;;;;;;0.00;0.00;;;17.30;99.90;;;;;;5037533;28;20057;-51
2023/07/27 00:11:49;;;;;;;0.00;0.00;;;17.20;99.90;;;;;;5032064;28;20044;-51
2023/07/27 00:14:14;;;;;;;0.00;0.00;;;17.30;99.90;;;;;;5034860;28;20431;-50
2023/07/27 00:16:40;;;;;;;0.00;0.00;;;17.30;99.90;;;;;;5036459;28;20337;-49
2023/07/27 00:19:05;;;;;;;0.00;0.00;;;17.40;99.90;;;;;;5039913;28;20040;-51
2023/07/27 00:21:31;;;;;;;0.00;0.00;;;17.30;99.90;;;;;;5035661;28;20136;-51
2023/07/27 00:23:57;;;;;;;0.00;0.00;;;17.30;99.90;;;;;;5042931;28;20037;-50
2023/07/27 00:26:22;;;;;;;0.00;0.00;;;17.40;99.90;;;;;;5026451;28;20452;-49
2023/07/27 00:28:48;;;;;;;0.00;0.00;;;17.40;99.90;;;;;;5043110;28;20037;-53
2023/07/27 00:31:14;;;;;;;0.00;0.00;;;17.40;99.90;;;;;;5044626;28;20040;-51
2023/07/27 00:33:39;;;;;;;0.00;0.00;;;17.40;99.90;;;;;;5034762;28;20414;-51
2023/07/27 00:36:05;;;;;;;0.00;0.00;;;17.40;99.90;;;;;;5043027;28;20036;-49
2023/07/27 00:38:30;;;;;;;0.00;0.00;;;17.40;99.90;;;;;;5043800;28;20025;-52
2023/07/27 00:40:56;;;;;;;0.00;0.00;;;17.40;99.90;;;;;;5043914;28;20655;-52
2023/07/27 00:43:23;;;;;;;0.00;0.00;;;17.40;99.90;;;;;;5045529;28;20033;-52
2023/07/27 00:45:50;;;;;;;0.00;0.00;;;17.40;99.90;;;;;;5043239;28;20145;-50
2023/07/27 00:48:16;;;;;;;0.00;0.00;;;17.40;99.90;;;;;;5044646;28;20495;-49
2023/07/27 00:50:41;;;;;;;0.00;0.00;;;17.30;99.90;;;;;;5042243;28;20102;-51
2023/07/27 00:53:08;;;;;;;0.00;0.00;;;17.40;99.90;;;;;;5039681;28;20485;-47
2023/07/27 00:55:35;;;;;;;0.00;0.00;;;17.30;99.90;;;;;;5042329;28;20154;-49
2023/07/27 00:58:01;;;;;;;0.00;0.00;;;17.30;99.90;;;;;;5039482;28;20040;-49
2023/07/27 01:00:27;;;;;;;0.00;0.00;;;17.30;99.90;;;;;;5039047;28;20061;-53
2023/07/27 01:02:53;;;;;;;0.00;0.00;;;17.30;99.90;;;;;;5041265;28;20543;-51
2023/07/27 01:05:19;;;;;;;0.00;0.00;;;17.30;99.90;;;;;;5039476;28;20064;-50
2023/07/27 01:07:45;;;;;;;0.00;0.00;;;17.20;99.90;;;;;;5043125;28;20181;-51
2023/07/27 01:10:11;;;;;;;0.00;0.00;;;17.20;99.90;;;;;;5040486;28;20041;-51
2023/07/27 01:13:04;;;;;;;0.00;0.00;;;17.30;99.90;;;;;;5038009;28;20107;-51
2023/07/27 01:15:37;;;;;;;0.00;0.00;;;17.40;99.90;;;;;;5033875;28;20711;-51
2023/07/27 01:18:07;;;;;;;0.00;0.00;;;17.40;99.90;;;;;;5038076;28;20531;-50
2023/07/27 01:20:47;;;;;;;0.00;0.00;;;17.50;99.90;;;;;;5039206;28;20042;-51
2023/07/27 01:23:49;;;;;;;0.00;0.00;;;17.60;99.90;;;;;;5042647;28;20163;-52
2023/07/27 01:26:51;;;;;;;0.00;0.00;;;17.70;99.90;;;;;;5019427;28;20704;-51
2023/07/27 01:29:47;;;;;;;0.00;0.00;;;17.80;99.90;;;;;;5044245;28;20131;-54
2023/07/27 01:32:14;;;;;;;0.00;0.00;;;17.90;99.90;;;;;;5041657;28;20546;-51
2023/07/27 01:34:45;;;;;;;0.00;0.00;;;17.60;99.90;;;;;;5033089;28;20037;-52
2023/07/27 01:37:15;;;;;;;0.00;0.00;;;17.60;99.90;;;;;;5040810;28;20043;-52
2023/07/27 01:39:47;;;;;;;0.00;0.00;;;17.70;99.90;;;;;;5037503;28;20557;-52
2023/07/27 01:42:13;;;;;;;0.00;0.00;;;17.70;99.90;;;;;;5035533;28;20033;-52
2023/07/27 01:44:40;;;;;;;0.00;0.00;;;17.70;99.90;;;;;;5043198;28;20198;-51
2023/07/27 01:47:08;;;;;;;0.00;0.00;;;17.70;99.90;;;;;;5043662;28;20044;-53
2023/07/27 01:49:37;;;;;;;0.00;0.00;;;17.60;99.90;;;;;;5041684;28;20084;-51
2023/07/27 01:52:04;;;;;;;0.00;0.00;;;17.50;99.90;;;;;;5042953;28;20037;-52
2023/07/27 01:54:30;;;;;;;0.00;0.00;;;17.40;99.90;;;;;;5041216;28;20037;-49
2023/07/27 01:56:57;;;;;;;0.00;0.00;;;17.30;99.90;;;;;;5036929;28;20040;-52
2023/07/27 01:59:24;;;;;;;0.00;0.00;;;17.20;99.90;;;;;;5039385;28;20515;-51
2023/07/27 02:01:50;;;;;;;0.00;0.00;;;17.00;99.90;;;;;;5042005;28;20037;-50
2023/07/27 02:04:16;;;;;;;0.00;0.00;;;16.90;99.90;;;;;;5039016;28;20033;-49
2023/07/27 02:06:41;;;;;;;0.00;0.00;;;16.80;99.90;;;;;;5041644;28;20095;-50
2023/07/27 02:09:07;;;;;;;0.00;0.00;;;16.90;99.90;;;;;;5044198;28;20087;-53
2023/07/27 02:11:33;;;;;;;0.00;0.00;;;16.90;99.90;;;;;;5036470;28;20041;-51
2023/07/27 02:14:09;;;;;;;0.00;0.00;;;16.80;99.90;;;;;;5041057;28;20071;-52
2023/07/27 02:16:47;;;;;;;0.00;0.00;;;16.80;99.90;;;;;;5030379;28;20045;-52
2023/07/27 02:19:15;;;;;;;0.00;0.00;;;16.90;99.90;;;;;;5040060;28;20448;-49
2023/07/27 02:21:42;;;;;;;0.00;0.00;;;16.80;99.90;;;;;;5039369;28;20088;-52
2023/07/27 02:24:08;;;;;;;0.00;0.00;;;16.80;99.90;;;;;;5043816;28;20040;-51
2023/07/27 02:26:34;;;;;;;0.00;0.00;;;16.70;99.90;;;;;;5041281;28;20033;-50
2023/07/27 02:29:00;;;;;;;0.00;0.00;;;16.70;99.90;;;;;;5037887;28;20036;-51
2023/07/27 02:31:26;;;;;;;0.00;0.00;;;16.60;99.90;;;;;;5040440;28;20400;-51
2023/07/27 02:33:51;;;;;;;0.00;0.00;;;16.60;99.90;;;;;;5033617;28;20525;-50
2023/07/27 02:36:17;;;;;;;0.00;0.00;;;16.60;99.90;;;;;;5043596;28;20041;-51
2023/07/27 02:38:43;;;;;;;0.00;0.00;;;16.60;99.90;;;;;;5041130;28;20124;-52
2023/07/27 02:41:11;;;;;;;0.00;0.00;;;16.50;99.90;;;;;;5039236;28;20036;-51
2023/07/27 02:43:37;;;;;;;0.00;0.00;;;16.50;99.90;;;;;;5031793;28;20132;-50
2023/07/27 02:46:04;;;;;;;0.00;0.00;;;16.50;99.90;;;;;;5036719;28;20037;-51
2023/07/27 02:48:30;;;;;;;0.00;0.00;;;16.50;99.90;;;;;;5039751;28;20060;-50
2023/07/27 02:50:55;;;;;;;0.00;0.00;;;16.50;99.90;;;;;;5042744;28;20033;-51
2023/07/27 02:53:21;;;;;;;0.00;0.00;;;16.50;99.90;;;;;;5041533;28;20037;-51
2023/07/27 02:56:13;;;;;;;0.00;0.00;;;16.40;99.90;;;;;;5039314;28;20083;-52
2023/07/27 02:58:39;;;;;;;0.00;0.00;;;16.30;99.90;;;;;;5037071;28;20037;-49
2023/07/27 03:01:05;;;;;;;0.00;0.00;;;16.20;99.90;;;;;;5038489;28;20503;-52
2023/07/27 03:03:30;;;;;;;0.00;0.00;;;16.10;99.90;;;;;;5033436;28;20060;-49
2023/07/27 03:06:01;;;;;;;0.00;0.00;;;16.20;99.90;;;;;;5039582;28;20104;-51
2023/07/27 03:08:28;;;;;;;0.00;0.00;;;16.30;99.90;;;;;;5040791;28;20032;-53
2023/07/27 03:10:54;;;;;;;0.00;0.00;;;16.30;99.90;;;;;;5036821;28;20044;-53
2023/07/27 03:13:20;;;;;;;0.00;0.00;;;16.20;99.90;;;;;;5035772;28;20041;-55
2023/07/27 03:15:45;;;;;;;0.00;0.00;;;16.20;99.90;;;;;;5036807;28;20040;-52
2023/07/27 03:18:11;;;;;;;0.00;0.00;;;16.30;99.90;;;;;;5037675;28;20488;-52
2023/07/27 03:20:40;;;;;;;0.00;0.00;;;16.40;99.90;;;;;;5041494;28;20045;-53
2023/07/27 03:23:07;;;;;;;0.00;0.00;;;16.50;99.90;;;;;;5035965;28;20033;-51
2023/07/27 03:25:34;;;;;;;0.00;0.00;;;16.30;99.90;;;;;;5027681;28;20053;-49
2023/07/27 03:28:05;;;;;;;0.00;0.00;;;16.50;99.90;;;;;;5041106;28;20497;-51
2023/07/27 03:30:31;;;;;;;0.00;0.00;;;16.50;99.90;;;;;;5038087;28;20140;-53
2023/07/27 03:32:57;;;;;;;0.00;0.00;;;16.50;99.90;;;;;;5033489;28;20041;-50
2023/07/27 03:35:23;;;;;;;0.00;0.00;;;16.40;99.90;;;;;;5038217;28;20040;-51
2023/07/27 03:37:51;;;;;;;0.00;0.00;;;16.40;99.90;;;;;;5041142;28;20037;-52
2023/07/27 03:40:17;;;;;;;0.00;0.00;;;16.30;99.90;;;;;;5035859;28;20056;-50
2023/07/27 03:42:43;;;;;;;0.00;0.00;;;16.40;99.90;;;;;;5033711;28;20523;-54
2023/07/27 03:45:09;;;;;;;0.00;0.00;;;16.40;99.90;;;;;;5036506;28;20071;-52
2023/07/27 03:47:34;;;;;;;0.00;0.00;;;16.40;99.90;;;;;;5040725;28;20048;-52
2023/07/27 03:50:00;;;;;;;0.00;0.00;;;16.40;99.90;;;;;;5033845;28;20124;-50
2023/07/27 03:52:26;;;;;;;0.00;0.00;;;16.30;99.90;;;;;;5042853;28;20064;-51
2023/07/27 03:54:51;;;;;;;0.00;0.00;;;16.50;99.90;;;;;;5038713;28;20041;-52
2023/07/27 03:57:17;;;;;;;0.00;0.00;;;16.50;99.90;;;;;;5040289;28;20056;-53
2023/07/27 03:59:43;;;;;;;0.00;0.00;;;16.40;99.90;;;;;;5040831;28;20040;-54
2023/07/27 04:02:08;;;;;;;0.00;0.00;;;16.40;99.90;;;;;;5040611;28;20033;-51
2023/07/27 04:04:34;;;;;;;0.00;0.00;;;16.40;99.90;;;;;;5042942;28;20029;-51
2023/07/27 04:06:59;;;;;;;0.00;0.00;;;16.50;99.90;;;;;;5046371;28;20037;-51
2023/07/27 04:09:25;;;;;;;0.00;0.00;;;16.30;99.90;;;;;;5036072;28;20041;-49
2023/07/27 04:11:52;;;;;;;0.00;0.00;;;16.30;99.90;;;;;;5042515;28;20103;-50
2023/07/27 04:14:18;;;;;;;0.00;0.00;;;16.20;99.90;;;;;;5042849;28;20509;-51
2023/07/27 04:16:43;;;;;;;0.00;0.00;;;16.30;99.90;;;;;;5039738;28;20057;-51
2023/07/27 04:19:09;;;;;;;0.00;0.00;;;16.40;99.90;;;;;;5046843;28;20036;-50
2023/07/27 04:21:34;;;;;;;0.00;0.00;;;16.30;99.90;;;;;;5038943;28;20665;-50
2023/07/27 04:24:00;;;;;;;0.00;0.00;;;16.30;99.90;;;;;;5045433;28;20488;-49
2023/07/27 04:26:26;;;;;;;0.00;0.00;;;16.20;99.90;;;;;;5043958;28;20051;-52
2023/07/27 04:28:51;;;;;;;0.00;0.00;;;16.20;99.90;;;;;;5043550;28;20041;-50
2023/07/27 04:31:17;;;;;;;0.00;0.00;;;16.20;99.90;;;;;;5044956;28;20033;-50
2023/07/27 04:33:42;;;;;;;0.00;0.00;;;16.30;99.90;;;;;;5044374;28;20038;-50
2023/07/27 04:36:08;;;;;;;0.00;0.00;;;16.30;99.90;;;;;;5045803;28;20029;-50
2023/07/27 04:38:34;;;;;;;0.00;0.00;;;16.30;99.90;;;;;;5044111;28;20033;-49
2023/07/27 04:40:59;;;;;;;0.00;0.00;;;16.40;99.90;;;;;;5045310;28;20039;-51
2023/07/27 04:43:25;;;;;;;0.00;0.00;;;16.30;99.90;;;;;;5044171;28;20025;-48
2023/07/27 04:45:50;;;;;;;0.00;0.00;;;16.20;99.90;;;;;;5044228;28;20056;-51
2023/07/27 04:48:16;;;;;;;0.00;0.00;;;16.20;99.90;;;;;;5044403;28;20040;-50
2023/07/27 04:50:42;;;;;;;0.00;0.00;;;16.30;99.90;;;;;;5043564;28;20030;-49
2023/07/27 04:53:07;;;;;;;0.00;0.00;;;16.10;99.90;;;;;;5043554;28;20052;-50
2023/07/27 04:55:33;;;;;;;0.00;0.00;;;16.00;99.90;;;;;;5041791;28;20029;-49
2023/07/27 04:57:59;;;;;;;0.00;0.00;;;16.00;99.90;;;;;;5043784;28;20131;-50
2023/07/27 05:00:25;;;;;;;0.00;0.00;;;16.00;99.90;;;;;;5043363;28;20044;-52
2023/07/27 05:02:50;;;;;;;0.00;0.00;;;16.00;99.90;;;;;;5037601;28;20045;-50
2023/07/27 05:05:16;;;;;;;0.00;0.00;;;16.10;99.90;;;;;;5044487;28;20041;-53
2023/07/27 05:07:41;;;;;;;0.00;0.00;;;16.00;99.90;;;;;;5042152;28;20321;-52
2023/07/27 05:10:07;;;;;;;0.00;0.00;;;15.90;99.90;;;;;;5044509;28;20440;-51
2023/07/27 05:12:33;;;;;;;0.00;0.00;;;15.90;99.90;;;;;;5039804;28;20099;-50
2023/07/27 05:15:01;;;;;;;0.00;0.00;;;16.00;99.90;;;;;;5044881;28;20169;-52
2023/07/27 05:17:27;;;;;;;0.00;0.00;;;16.00;99.90;;;;;;5036748;28;20040;-49
2023/07/27 05:19:57;;;;;;;0.00;0.00;;;16.00;99.90;;;;;;5036911;28;20033;-51
2023/07/27 05:22:22;;;;;;;0.00;0.00;;;15.90;99.90;;;;;;5043994;28;20187;-51
2023/07/27 05:24:48;;;;;;;0.00;0.00;;;16.10;99.90;;;;;;5041367;28;20123;-48
2023/07/27 05:27:13;;;;;;;0.00;0.00;;;16.10;99.90;;;;;;5041475;28;20175;-50
2023/07/27 05:29:39;;;;;;;0.00;0.00;;;16.10;99.90;;;;;;5039707;28;20033;-49
2023/07/27 05:32:05;;;;;;;0.00;0.00;;;16.10;99.90;;;;;;5040956;28;20040;-51
2023/07/27 05:34:32;;;;;;;0.00;0.00;;;16.00;99.90;;;;;;5040268;28;20511;-53
2023/07/27 05:36:57;;;;;;;0.00;0.00;;;15.90;99.90;;;;;;5039761;28;20025;-50
2023/07/27 05:39:23;;;;;;;0.00;0.00;;;16.00;99.90;;;;;;5043194;28;20547;-51
2023/07/27 05:41:48;;;;;;;0.00;0.00;;;15.90;99.90;;;;;;5028768;28;20110;-51
2023/07/27 05:44:14;;;;;;;0.00;0.00;;;16.00;99.90;;;;;;5041396;28;20041;-51
2023/07/27 05:46:39;;;;;;;0.00;0.00;;;15.90;99.90;;;;;;5043057;28;20615;-51
2023/07/27 05:49:05;;;;;;;0.00;0.00;;;16.00;99.90;;;;;;5040815;28;20472;-50
2023/07/27 05:51:31;;;;;;;0.00;0.00;;;16.00;99.90;;;;;;5042053;28;20048;-53
2023/07/27 05:53:56;;;;;;;0.00;0.00;;;16.00;99.90;;;;;;5041724;28;20716;-52
2023/07/27 05:56:22;;;;;;;0.00;0.00;;;16.00;99.90;;;;;;5038862;28;20112;-51
2023/07/27 05:58:48;;;;;;;0.00;0.00;;;15.90;99.90;;;;;;5037475;28;20692;-50
2023/07/27 06:01:16;;;;;;;0.00;0.00;;;16.00;99.90;;;;;;5039095;28;20037;-52
2023/07/27 06:03:41;;;;;;;0.00;0.00;;;16.00;99.90;;;;;;5029817;28;20037;-52
2023/07/27 06:06:07;;;;;;;0.00;0.00;;;16.10;99.90;;;;;;5033539;28;20110;-53
2023/07/27 06:08:33;;;;;;;0.00;0.00;;;15.90;99.90;;;;;;5040795;28;20549;-51
2023/07/27 06:11:01;;;;;;;0.00;0.00;;;15.90;99.90;;;;;;5044117;28;20127;-53
2023/07/27 06:13:27;;;;;;;0.00;0.00;;;16.10;99.90;;;;;;5038684;28;20708;-52
2023/07/27 06:15:52;;;;;;;0.00;0.00;;;16.00;99.90;;;;;;5040001;28;20033;-52
2023/07/27 06:18:18;;;;;;;0.00;0.00;;;15.90;99.90;;;;;;5039523;28;20124;-52
2023/07/27 06:20:43;;;;;;;0.00;0.00;;;15.90;99.90;;;;;;5042801;28;20063;-51
2023/07/27 06:23:09;;;;;;;0.00;0.00;;;16.00;99.90;;;;;;5037252;28;20053;-50
2023/07/27 06:25:34;;;;;;;0.00;0.00;;;16.00;99.90;;;;;;5041402;28;20393;-52
2023/07/27 06:28:00;;;;;;;0.00;0.00;;;15.90;99.90;;;;;;5040922;28;20064;-54
2023/07/27 06:30:26;;;;;;;0.00;0.00;;;15.90;99.90;;;;;;5039539;28;20722;-52
2023/07/27 06:32:51;;;;;;;0.00;0.00;;;15.90;99.90;;;;;;5042940;28;20045;-52
2023/07/27 06:35:17;;;;;;;0.00;0.00;;;16.00;99.90;;;;;;5040194;28;20546;-50
2023/07/27 06:37:42;;;;;;;0.00;0.00;;;16.20;99.90;;;;;;5041932;28;20049;-51
2023/07/27 06:40:08;;;;;;;0.00;0.00;;;16.20;99.90;;;;;;5041381;28;20629;-52
2023/07/27 06:42:34;;;;;;;0.00;0.00;;;16.00;99.90;;;;;;5039072;28;20108;-54
2023/07/27 06:44:59;;;;;;;0.00;0.00;;;15.90;99.90;;;;;;5037741;28;20401;-51
2023/07/27 06:47:25;;;;;;;0.00;0.00;;;16.00;99.90;;;;;;5034128;28;20049;-52
2023/07/27 06:49:51;;;;;;;0.00;0.00;;;16.00;99.90;;;;;;5032895;28;20041;-51
2023/07/27 06:52:16;;;;;;;0.00;0.00;;;16.10;99.90;;;;;;5040663;28;20088;-51
2023/07/27 06:54:42;;;;;;;0.00;0.00;;;16.10;99.90;;;;;;5037590;28;20270;-50
2023/07/27 06:57:10;;;;;;;0.00;0.00;;;16.10;99.90;;;;;;5040954;28;20040;-50
2023/07/27 06:59:36;;;;;;;0.00;0.00;;;15.90;99.90;;;;;;5037340;28;20428;-53
2023/07/27 07:02:02;;;;;;;0.00;0.00;;;16.00;99.90;;;;;;5033600;28;20029;-54
2023/07/27 07:04:30;;;;;;;0.00;0.00;;;16.10;99.90;;;;;;5040218;28;20049;-52
2023/07/27 07:06:55;;;;;;;0.00;0.00;;;16.00;99.90;;;;;;5038193;28;20413;-48
2023/07/27 07:09:21;;;;;;;0.00;0.00;;;15.80;99.90;;;;;;5039460;28;21540;-52
2023/07/27 07:11:48;;;;;;;0.00;0.00;;;15.80;99.90;;;;;;5034512;28;20548;-52
2023/07/27 07:14:13;;;;;;;0.00;0.00;;;15.90;99.90;;;;;;5040435;28;20056;-53
2023/07/27 07:16:39;;;;;;;0.00;0.00;;;16.20;99.90;;;;;;5038931;28;20072;-52
2023/07/27 07:19:05;;;;;;;0.00;0.00;;;16.40;99.90;;;;;;5033824;28;20144;-48
2023/07/27 07:21:30;;;;;;;0.00;0.00;;;16.30;99.90;;;;;;5041743;28;20044;-51
2023/07/27 07:23:56;;;;;;;0.00;0.00;;;16.40;99.90;;;;;;5033127;28;20091;-52
2023/07/27 07:26:22;;;;;;;0.00;0.00;;;16.40;99.90;;;;;;5036596;28;20056;-52
2023/07/27 07:28:47;;;;;;;0.00;0.00;;;16.40;99.90;;;;;;5029111;28;20094;-51
2023/07/27 07:31:13;;;;;;;0.00;0.00;;;16.20;99.90;;;;;;5036227;28;20044;-51
2023/07/27 07:33:39;;;;;;;0.00;0.00;;;16.30;99.90;;;;;;5037598;28;20029;-54
2023/07/27 07:36:04;;;;;;;0.00;0.00;;;16.30;99.90;;;;;;5040083;28;20132;-52
2023/07/27 07:38:30;;;;;;;0.00;0.00;;;16.40;99.90;;;;;;5044491;28;20041;-49
2023/07/27 07:40:55;;;;;;;0.00;0.00;;;16.60;99.90;;;;;;5043668;28;20366;-52
2023/07/27 07:43:21;;;;;;;0.00;0.00;;;16.60;99.90;;;;;;5043037;28;20045;-54
2023/07/27 07:45:47;;;;;;;0.00;0.00;;;16.70;99.90;;;;;;5044801;28;20144;-51
2023/07/27 07:48:12;;;;;;;0.00;0.00;;;16.70;99.90;;;;;;5047903;28;20392;-53
2023/07/27 07:50:38;;;;;;;0.00;0.00;;;16.70;99.90;;;;;;5041867;28;20033;-50
2023/07/27 07:53:05;;;;;;;0.00;0.00;;;16.60;99.90;;;;;;5043851;28;20045;-52
2023/07/27 07:55:35;;;;;;;0.00;0.00;;;16.70;99.90;;;;;;5039177;28;20087;-56
2023/07/27 07:58:00;;;;;;;0.00;0.00;;;16.60;99.90;;;;;;5044684;28;20102;-53
2023/07/27 08:00:26;;;;;;;0.00;0.00;;;16.70;99.90;;;;;;5041641;28;20043;-62
2023/07/27 08:02:51;;;;;;;0.00;0.00;;;16.60;99.90;;;;;;5043734;28;20029;-57
2023/07/27 08:05:17;;;;;;;0.00;0.00;;;16.60;99.90;;;;;;5035374;28;20065;-53
2023/07/27 08:07:43;;;;;;;0.00;0.00;;;16.70;99.90;;;;;;5033108;28;20041;-55
2023/07/27 08:10:09;;;;;;;0.00;0.00;;;16.90;99.90;;;;;;5040946;28;20033;-52
2023/07/27 08:12:35;;;;;;;0.00;0.00;;;16.70;99.90;;;;;;5046846;28;20123;-59
2023/07/27 08:15:01;;;;;;;0.00;0.00;;;16.80;99.90;;;;;;5047449;28;20582;-55
2023/07/27 08:17:30;;;;;;;0.00;0.00;;;16.90;99.90;;;;;;5042066;28;20037;-54
2023/07/27 08:19:55;;;;;;;0.00;0.00;;;16.90;99.90;;;;;;5035029;28;20492;-60
2023/07/27 08:22:21;;;;;;;0.00;0.00;;;16.80;99.90;;;;;;5041772;28;20029;-54
2023/07/27 08:24:47;;;;;;;0.00;0.00;;;17.00;99.90;;;;;;5039353;28;20036;-54
2023/07/27 08:27:13;;;;;;;0.00;0.00;;;17.10;99.90;;;;;;5042755;28;20124;-53
2023/07/27 08:29:39;;;;;;;0.00;0.00;;;17.30;99.90;;;;;;5035100;28;20396;-54
2023/07/27 08:32:05;;;;;;;0.00;0.00;;;17.30;99.90;;;;;;5041111;28;20388;-55
2023/07/27 08:34:31;;;;;;;0.00;0.00;;;17.30;99.90;;;;;;5037043;28;20030;-55
2023/07/27 08:36:56;;;;;;;0.00;0.00;;;17.50;99.90;;;;;;5039944;28;20385;-54
2023/07/27 08:39:22;;;;;;;0.00;0.00;;;17.70;99.90;;;;;;5039311;28;20037;-52
2023/07/27 08:41:49;;;;;;;0.00;0.00;;;17.60;99.90;;;;;;5040044;28;20511;-54
2023/07/27 08:44:14;;;;;;;0.00;0.00;;;17.70;99.90;;;;;;5041779;28;20047;-53
2023/07/27 08:46:41;;;;;;;0.00;0.00;;;17.80;99.90;;;;;;5039567;28;20044;-54
2023/07/27 08:49:12;;;;;;;0.00;0.00;;;17.50;99.90;;;;;;5037710;28;20144;-53
2023/07/27 08:51:39;;;;;;;0.00;0.00;;;17.60;99.90;;;;;;5032736;28;20677;-54
2023/07/27 08:54:05;;;;;;;0.00;0.00;;;17.70;99.90;;;;;;5035226;28;20392;-55
2023/07/27 08:56:31;;;;;;;0.00;0.00;;;17.80;99.90;;;;;;5043352;28;20035;-52
2023/07/27 08:58:57;;;;;;;0.00;0.00;;;17.80;99.90;;;;;;5040838;28;20133;-54
2023/07/27 09:01:23;;;;;;;0.00;0.00;;;17.90;99.90;;;;;;5039320;28;20052;-54
2023/07/27 09:03:48;;;;;;;0.00;0.00;;;17.90;99.90;;;;;;5039872;28;20469;-55
2023/07/27 09:06:15;;;;;;;0.00;0.00;;;18.00;99.90;;;;;;5035444;28;20036;-55
2023/07/27 09:08:42;;;;;;;0.00;0.00;;;18.00;99.90;;;;;;5043677;28;20025;-55
2023/07/27 09:11:09;;;;;;;0.00;0.00;;;18.00;99.90;;;;;;5039734;28;20032;-51
2023/07/27 09:13:37;;;;;;;0.00;0.00;;;18.00;99.90;;;;;;5035087;28;20134;-54
2023/07/27 09:16:05;;;;;;;0.00;0.00;;;17.90;99.90;;;;;;5042016;28;20029;-55
2023/07/27 09:18:38;;;;;;;0.00;0.00;;;17.90;99.90;;;;;;5040290;28;20037;-55
2023/07/27 09:21:09;;;;;;;0.00;0.00;;;18.00;99.90;;;;;;5043640;28;20030;-55
2023/07/27 09:23:36;;;;;;;0.00;0.00;;;18.10;99.90;;;;;;5038284;28;20106;-53
2023/07/27 09:26:02;;;;;;;0.00;0.00;;;18.00;99.90;;;;;;5039265;28;20447;-55
2023/07/27 09:28:28;;;;;;;0.00;0.00;;;18.10;99.90;;;;;;5043928;28;20037;-55
2023/07/27 09:31:02;;;;;;;0.00;0.00;;;18.20;99.90;;;;;;5032872;28;20168;-54
2023/07/27 09:33:28;;;;;;;0.00;0.00;;;18.30;99.90;;;;;;5039669;28;20032;-54
2023/07/27 09:35:55;;;;;;;0.00;0.00;;;18.40;99.90;;;;;;5041092;28;20668;-54
2023/07/27 09:38:28;;;;;;;0.00;0.00;;;18.40;99.90;;;;;;5044699;28;20051;-54
2023/07/27 09:40:53;;;;;;;0.00;0.00;;;18.50;99.90;;;;;;5041831;28;20036;-53
2023/07/27 09:43:24;;;;;;;0.00;0.00;;;18.60;99.90;;;;;;5034523;28;20037;-52
2023/07/27 09:45:58;;;;;;;0.00;0.00;;;18.50;99.90;;;;;;5040844;28;20040;-54
2023/07/27 09:48:25;;;;;;;0.00;0.00;;;18.40;99.90;;;;;;5040345;28;20064;-55
2023/07/27 09:50:52;;;;;;;0.00;0.00;;;18.50;99.90;;;;;;5041152;28;20519;-57
2023/07/27 09:53:20;;;;;;;0.00;0.00;;;18.50;99.90;;;;;;5039281;28;20140;-52
2023/07/27 09:55:47;;;;;;;0.00;0.00;;;18.60;99.90;;;;;;5045488;28;20496;-55
2023/07/27 09:58:15;;;;;;;0.00;0.00;;;18.60;99.90;;;;;;5039529;28;20652;-55
2023/07/27 10:00:41;;;;;;;0.00;0.00;;;18.70;99.90;;;;;;5043450;28;20040;-54
2023/07/27 10:03:07;;;;;;;0.00;0.00;;;18.60;99.90;;;;;;5039009;28;20041;-54
2023/07/27 10:05:39;;;;;;;0.00;0.00;;;18.60;99.90;;;;;;5032743;28;20029;-53
2023/07/27 10:08:06;;;;;;;0.00;0.00;;;18.70;99.90;;;;;;5044332;28;20040;-54
2023/07/27 10:10:36;;;;;;;0.00;0.00;;;18.70;99.90;;;;;;5038623;28;20040;-53
2023/07/27 10:13:11;;;;;;;0.00;0.00;;;18.60;99.90;;;;;;5040294;28;20041;-52
2023/07/27 10:15:42;;;;;;;0.00;0.00;;;18.80;99.90;;;;;;5037588;28;20611;-54
2023/07/27 10:18:11;;;;;;;0.00;0.00;;;18.80;99.90;;;;;;5037176;28;20496;-51
2023/07/27 10:20:37;;;;;;;0.00;0.00;;;18.90;99.90;;;;;;5036351;28;20566;-54
2023/07/27 10:23:25;;;;;;;0.00;0.00;;;18.80;99.90;;;;;;5037928;28;20037;-52
2023/07/27 10:25:57;;;;;;;0.00;0.00;;;18.80;99.90;;;;;;5036134;28;20071;-53
2023/07/27 10:28:32;;;;;;;0.00;0.00;;;18.80;99.90;;;;;;5038885;28;20408;-52
2023/07/27 10:31:28;;;;;;;0.00;0.00;;;18.90;99.90;;;;;;5040569;28;20043;-53
2023/07/27 10:34:13;;;;;;;0.00;0.00;;;18.80;99.90;;;;;;5031088;28;20033;-55
2023/07/27 10:36:57;;;;;;;0.00;0.00;;;18.70;99.90;;;;;;5043915;28;20041;-55
2023/07/27 10:39:31;;;;;;;0.00;0.00;;;18.70;99.90;;;;;;5034920;28;20057;-54
2023/07/27 10:42:08;;;;;;;0.00;0.00;;;18.80;99.90;;;;;;5045098;28;20033;-59
2023/07/27 10:44:44;;;;;;;0.00;0.00;;;18.80;99.90;;;;;;5039736;28;20839;-55
2023/07/27 10:47:12;;;;;;;0.00;0.00;;;18.80;99.90;;;;;;5042750;28;20116;-55
2023/07/27 10:49:46;;;;;;;0.00;0.00;;;18.80;99.90;;;;;;5037265;28;20452;-55
2023/07/27 10:52:23;;;;;;;0.00;0.00;;;18.80;99.90;;;;;;5036923;28;20124;-54
2023/07/27 10:54:50;;;;;;;0.00;0.00;;;18.80;99.90;;;;;;5033426;28;20508;-55
2023/07/27 10:57:17;;;;;;;0.00;0.00;;;18.80;99.90;;;;;;5036124;28;20032;-53
2023/07/27 10:59:45;;;;;;;0.00;0.00;;;18.90;99.90;;;;;;5036515;28;20405;-55
2023/07/27 11:02:23;;;;;;;0.00;0.00;;;18.80;99.90;;;;;;5034513;28;20408;-54
2023/07/27 11:04:54;;;;;;;0.00;0.00;;;18.90;99.90;;;;;;5036726;28;20036;-55
2023/07/27 11:07:37;;;;;;;0.00;0.00;;;18.80;99.90;;;;;;5042090;28;20032;-55
2023/07/27 11:10:06;;;;;;;0.00;0.00;;;18.90;99.90;;;;;;5034020;28;20092;-56
2023/07/27 11:12:44;;;;;;;0.00;0.00;;;19.00;99.90;;;;;;5037202;28;20037;-55
2023/07/27 11:15:21;;;;;;;0.00;0.00;;;19.00;99.90;;;;;;5039070;28;20407;-54
2023/07/27 11:17:55;;;;;;;0.00;0.00;;;19.00;99.90;;;;;;5034018;28;20033;-54
2023/07/27 11:20:22;;;;;;;0.00;0.00;;;19.10;99.90;;;;;;5035154;28;20028;-56
2023/07/27 11:22:49;;;;;;;0.00;0.00;;;19.10;99.90;;;;;;5041970;28;20029;-55
2023/07/27 11:25:14;;;;;;;0.00;0.00;;;19.00;99.90;;;;;;5032674;28;20409;-55
2023/07/27 11:27:40;;;;;;;0.00;0.00;;;19.00;99.90;;;;;;5040262;28;20033;-53
2023/07/27 11:30:11;;;;;;;0.00;0.00;;;18.90;99.90;;;;;;5036382;28;20029;-52
2023/07/27 11:32:37;;;;;;;0.00;0.00;;;19.00;99.90;;;;;;5040767;28;20448;-53
2023/07/27 11:35:03;;;;;;;0.00;0.00;;;19.10;99.90;;;;;;5037469;28;20037;-54
2023/07/27 11:37:30;;;;;;;0.00;0.00;;;19.20;99.90;;;;;;5041241;28;20041;-53
2023/07/27 11:39:56;;;;;;;0.00;0.00;;;19.20;99.90;;;;;;5041877;28;20492;-54
2023/07/27 11:42:29;;;;;;;0.00;0.00;;;19.30;99.90;;;;;;5038858;28;20408;-54
2023/07/27 11:44:59;;;;;;;0.00;0.00;;;19.40;99.90;;;;;;5038805;28;20087;-53
2023/07/27 11:47:25;;;;;;;0.00;0.00;;;19.40;99.90;;;;;;5039209;28;20068;-55
2023/07/27 11:49:53;;;;;;;0.00;0.00;;;19.50;99.90;;;;;;5039444;28;20037;-53
2023/07/27 11:52:19;;;;;;;0.00;0.00;;;19.70;99.90;;;;;;5030134;28;20047;-52
2023/07/27 11:54:50;;;;;;;0.00;0.00;;;19.90;99.90;;;;;;5035039;28;20529;-51
2023/07/27 11:57:15;;;;;;;0.00;0.00;;;20.00;99.90;;;;;;5032079;28;20040;-51
2023/07/27 11:59:41;;;;;;;0.00;0.00;;;20.00;99.90;;;;;;5024750;28;20038;-53
2023/07/27 12:02:07;;;;;;;0.00;0.00;;;20.00;99.90;;;;;;5040508;28;20037;-51
2023/07/27 12:04:33;;;;;;;0.00;0.00;;;20.00;99.90;;;;;;5027483;28;20230;-57
2023/07/27 12:06:59;;;;;;;0.00;0.00;;;19.90;99.90;;;;;;5038370;28;20051;-55
2023/07/27 12:09:26;;;;;;;0.00;0.00;;;19.80;99.90;;;;;;5036667;28;20440;-53
2023/07/27 12:11:52;;;;;;;0.00;0.00;;;19.90;99.90;;;;;;5037261;28;20595;-56
2023/07/27 12:14:22;;;;;;;0.00;0.00;;;19.90;99.90;;;;;;5030494;28;20112;-57
2023/07/27 12:16:48;;;;;;;0.00;0.00;;;19.80;99.90;;;;;;5037530;28;20048;-53
2023/07/27 12:19:14;;;;;;;0.00;0.00;;;19.70;99.90;;;;;;5031030;28;20424;-57
2023/07/27 12:21:39;;;;;;;0.00;0.00;;;19.60;99.90;;;;;;5045343;28;20048;-54
2023/07/27 12:24:09;;;;;;;0.00;0.00;;;19.60;99.90;;;;;;5040688;28;20021;-53
2023/07/27 12:26:36;;;;;;;0.00;0.00;;;19.60;99.90;;;;;;5044786;28;20037;-53
2023/07/27 12:29:02;;;;;;;0.00;0.00;;;19.60;99.90;;;;;;5044420;28;20061;-54
2023/07/27 12:31:27;;;;;;;0.00;0.00;;;19.60;99.90;;;;;;5042437;28;20033;-53
2023/07/27 12:33:53;;;;;;;0.00;0.00;;;19.60;99.90;;;;;;5041563;28;20037;-55
2023/07/27 12:36:18;;;;;;;0.00;0.00;;;19.50;99.90;;;;;;5035480;28;20080;-52
2023/07/27 12:38:45;;;;;;;0.00;0.00;;;19.50;99.90;;;;;;5037122;28;20025;-54
2023/07/27 12:41:11;;;;;;;0.00;0.00;;;19.60;99.90;;;;;;5035084;28;20033;-53
2023/07/27 12:43:37;;;;;;;0.00;0.00;;;19.80;99.90;;;;;;5038276;28;20037;-55
2023/07/27 12:46:04;;;;;;;0.00;0.00;;;20.00;99.90;;;;;;5043993;28;20060;-54
2023/07/27 12:48:29;;;;;;;0.00;0.00;;;20.00;99.90;;;;;;5043623;28;20044;-54
2023/07/27 12:50:55;;;;;;;0.00;0.00;;;20.00;99.90;;;;;;5047208;28;20862;-54